SQP1318 UKLI-EPGD
Flight info
| Callsign | SQP1318 |
|---|---|
| Flight time | 1h 8m |
| Altitude | 32000 |
| Route | KOKUP N195 DIBED DCT NATEV/N0445F320 DCT XIMBA DCT SORIX DCT NASOK N133 GRUDA Z95 OSLOG |
| Aircraft | B738/M-SDE2E3FGHIRWXY/LB1 |
Departure
| Time | 2026-05-06 18:48 |
|---|---|
| Airport | Ivano-Frankivsk International Airport (UKLI) |
Arrival
| Time | 2026-05-06 19:56 |
|---|---|
| Airport | Gdańsk Lech Wałęsa Airport (EPGD) |
| Time | Latitude | Longitude | Altitude | Speed | Heading |
|---|---|---|---|---|---|
| 2026-05-06 18:48 | 49.10640 | 24.47231 | 11947 ft | 352 kts | 305° |
| 2026-05-06 18:48 | 49.12187 | 24.44303 | 12629 ft | 355 kts | 306° |
| 2026-05-06 18:48 | 49.13745 | 24.41336 | 13341 ft | 359 kts | 306° |
| 2026-05-06 18:49 | 49.15313 | 24.38340 | 14007 ft | 363 kts | 306° |
| 2026-05-06 18:49 | 49.16918 | 24.35264 | 14407 ft | 374 kts | 306° |
| 2026-05-06 18:49 | 49.18540 | 24.32151 | 14979 ft | 379 kts | 306° |
| 2026-05-06 18:49 | 49.20191 | 24.28981 | 15666 ft | 381 kts | 306° |
| 2026-05-06 18:50 | 49.21846 | 24.25799 | 16352 ft | 383 kts | 306° |
| 2026-05-06 18:50 | 49.23514 | 24.22587 | 17005 ft | 386 kts | 306° |
| 2026-05-06 18:50 | 49.25193 | 24.19353 | 17681 ft | 389 kts | 306° |
| 2026-05-06 18:50 | 49.26880 | 24.16097 | 18339 ft | 391 kts | 306° |
| 2026-05-06 18:51 | 49.28576 | 24.12821 | 18878 ft | 394 kts | 306° |
| 2026-05-06 18:51 | 49.30281 | 24.09522 | 19431 ft | 396 kts | 306° |
| 2026-05-06 18:51 | 49.31978 | 24.06236 | 19957 ft | 399 kts | 306° |
| 2026-05-06 18:51 | 49.33702 | 24.02893 | 20498 ft | 401 kts | 306° |
| 2026-05-06 18:52 | 49.35438 | 23.99521 | 21016 ft | 404 kts | 306° |
| 2026-05-06 18:52 | 49.37183 | 23.96129 | 21533 ft | 406 kts | 306° |
| 2026-05-06 18:52 | 49.38939 | 23.92709 | 22031 ft | 409 kts | 306° |
| 2026-05-06 18:52 | 49.40709 | 23.89259 | 22531 ft | 412 kts | 306° |
| 2026-05-06 18:53 | 49.42490 | 23.85783 | 23022 ft | 415 kts | 306° |
| 2026-05-06 18:53 | 49.44284 | 23.82277 | 23399 ft | 420 kts | 306° |
| 2026-05-06 18:53 | 49.46094 | 23.78732 | 23795 ft | 422 kts | 306° |
| 2026-05-06 18:53 | 49.47912 | 23.75171 | 24227 ft | 424 kts | 306° |
| 2026-05-06 18:54 | 49.49732 | 23.71601 | 24638 ft | 425 kts | 306° |
| 2026-05-06 18:54 | 49.51539 | 23.68052 | 25019 ft | 427 kts | 306° |
| 2026-05-06 18:54 | 49.53407 | 23.64467 | 25390 ft | 430 kts | 308° |
| 2026-05-06 18:54 | 49.55420 | 23.61022 | 25754 ft | 433 kts | 310° |
| 2026-05-06 18:55 | 49.57493 | 23.57643 | 26120 ft | 435 kts | 311° |
| 2026-05-06 18:55 | 49.59593 | 23.54265 | 26555 ft | 435 kts | 311° |
| 2026-05-06 18:55 | 49.61684 | 23.50893 | 27091 ft | 433 kts | 311° |
| 2026-05-06 18:55 | 49.63749 | 23.47534 | 27639 ft | 430 kts | 311° |
| 2026-05-06 18:56 | 49.65771 | 23.44221 | 28156 ft | 428 kts | 311° |
| 2026-05-06 18:56 | 49.67806 | 23.40866 | 28643 ft | 427 kts | 310° |
| 2026-05-06 18:56 | 49.69833 | 23.37511 | 29133 ft | 426 kts | 310° |
| 2026-05-06 18:56 | 49.71852 | 23.34164 | 29633 ft | 424 kts | 310° |
| 2026-05-06 18:57 | 49.73859 | 23.30831 | 30102 ft | 423 kts | 310° |
| 2026-05-06 18:57 | 49.75860 | 23.27503 | 30536 ft | 420 kts | 310° |
| 2026-05-06 18:57 | 49.77940 | 23.24344 | 30982 ft | 420 kts | 319° |
| 2026-05-06 18:57 | 49.80298 | 23.21670 | 31467 ft | 418 kts | 322° |
| 2026-05-06 18:58 | 49.82697 | 23.19104 | 31682 ft | 422 kts | 322° |
| 2026-05-06 18:58 | 49.85139 | 23.16518 | 31795 ft | 427 kts | 322° |
| 2026-05-06 18:58 | 49.87573 | 23.13933 | 31862 ft | 432 kts | 322° |
| 2026-05-06 18:59 | 49.92576 | 23.08554 | 31880 ft | 442 kts | 322° |
| 2026-05-06 18:59 | 49.97663 | 23.03012 | 31872 ft | 451 kts | 322° |
| 2026-05-06 19:00 | 50.02822 | 22.97355 | 31864 ft | 456 kts | 322° |
| 2026-05-06 19:00 | 50.08019 | 22.91637 | 31862 ft | 457 kts | 322° |
| 2026-05-06 19:01 | 50.13210 | 22.85911 | 31856 ft | 457 kts | 322° |
| 2026-05-06 19:01 | 50.18390 | 22.80182 | 31852 ft | 456 kts | 322° |
| 2026-05-06 19:02 | 50.23516 | 22.74498 | 31842 ft | 454 kts | 322° |
| 2026-05-06 19:02 | 50.28665 | 22.68771 | 31849 ft | 454 kts | 321° |
| 2026-05-06 19:03 | 50.33811 | 22.63031 | 31846 ft | 454 kts | 321° |
| 2026-05-06 19:03 | 50.38957 | 22.57277 | 31837 ft | 454 kts | 321° |
| 2026-05-06 19:04 | 50.44061 | 22.51554 | 31832 ft | 453 kts | 321° |
| 2026-05-06 19:04 | 50.49192 | 22.45785 | 31828 ft | 453 kts | 321° |
| 2026-05-06 19:05 | 50.54316 | 22.40009 | 31827 ft | 453 kts | 321° |
| 2026-05-06 19:05 | 50.59436 | 22.34221 | 31836 ft | 453 kts | 320° |
| 2026-05-06 19:06 | 50.64520 | 22.28458 | 31823 ft | 453 kts | 320° |
| 2026-05-06 19:06 | 50.69634 | 22.22645 | 31829 ft | 453 kts | 320° |
| 2026-05-06 19:07 | 50.74749 | 22.16815 | 31822 ft | 453 kts | 320° |
| 2026-05-06 19:07 | 50.79868 | 22.10963 | 31818 ft | 454 kts | 320° |
| 2026-05-06 19:08 | 50.84986 | 22.05098 | 31819 ft | 455 kts | 320° |
| 2026-05-06 19:08 | 50.90106 | 21.99214 | 31816 ft | 455 kts | 319° |
| 2026-05-06 19:09 | 50.95233 | 21.93305 | 31812 ft | 456 kts | 320° |
| 2026-05-06 19:09 | 51.00365 | 21.87374 | 31808 ft | 456 kts | 319° |
| 2026-05-06 19:10 | 51.05493 | 21.81431 | 31813 ft | 456 kts | 319° |
| 2026-05-06 19:10 | 51.10635 | 21.75456 | 31810 ft | 457 kts | 319° |
| 2026-05-06 19:11 | 51.15738 | 21.69509 | 31804 ft | 458 kts | 319° |
| 2026-05-06 19:11 | 51.20875 | 21.63505 | 31797 ft | 458 kts | 319° |
| 2026-05-06 19:12 | 51.26018 | 21.57477 | 31804 ft | 458 kts | 319° |
| 2026-05-06 19:12 | 51.31157 | 21.51437 | 31798 ft | 458 kts | 319° |
| 2026-05-06 19:13 | 51.36303 | 21.45371 | 31804 ft | 459 kts | 318° |
| 2026-05-06 19:13 | 51.41449 | 21.39288 | 31796 ft | 460 kts | 318° |
| 2026-05-06 19:14 | 51.46594 | 21.33189 | 31800 ft | 460 kts | 318° |
| 2026-05-06 19:14 | 51.51706 | 21.27112 | 31801 ft | 460 kts | 318° |
| 2026-05-06 19:15 | 51.56851 | 21.20977 | 31802 ft | 460 kts | 318° |
| 2026-05-06 19:15 | 51.61998 | 21.14822 | 31802 ft | 461 kts | 317° |
| 2026-05-06 19:16 | 51.66277 | 21.09692 | 31798 ft | 461 kts | 317° |
| 2026-05-06 19:16 | 51.71423 | 21.03506 | 31792 ft | 461 kts | 317° |
| 2026-05-06 19:17 | 51.76559 | 20.97314 | 31789 ft | 461 kts | 317° |
| 2026-05-06 19:17 | 51.81696 | 20.91104 | 31789 ft | 461 kts | 317° |
| 2026-05-06 19:18 | 51.86827 | 20.84881 | 31801 ft | 461 kts | 317° |
| 2026-05-06 19:18 | 51.91957 | 20.78642 | 31788 ft | 461 kts | 317° |
| 2026-05-06 19:19 | 51.97084 | 20.72388 | 31788 ft | 461 kts | 317° |
| 2026-05-06 19:19 | 52.02209 | 20.66118 | 31786 ft | 461 kts | 317° |
| 2026-05-06 19:20 | 52.07295 | 20.59878 | 31780 ft | 461 kts | 317° |
| 2026-05-06 19:20 | 52.12443 | 20.53543 | 31800 ft | 461 kts | 317° |
| 2026-05-06 19:21 | 52.17526 | 20.47269 | 31788 ft | 462 kts | 316° |
| 2026-05-06 19:21 | 52.22645 | 20.40932 | 31788 ft | 462 kts | 316° |
| 2026-05-06 19:22 | 52.27754 | 20.34589 | 31779 ft | 461 kts | 316° |
| 2026-05-06 19:22 | 52.32867 | 20.28223 | 31781 ft | 461 kts | 316° |
| 2026-05-06 19:23 | 52.37970 | 20.21849 | 31813 ft | 461 kts | 316° |
| 2026-05-06 19:23 | 52.43072 | 20.15456 | 31781 ft | 462 kts | 316° |
| 2026-05-06 19:24 | 52.48143 | 20.09085 | 31785 ft | 462 kts | 316° |
| 2026-05-06 19:24 | 52.53248 | 20.02651 | 31774 ft | 462 kts | 316° |
| 2026-05-06 19:25 | 52.58342 | 19.96212 | 31785 ft | 462 kts | 316° |
| 2026-05-06 19:25 | 52.63419 | 19.89778 | 31759 ft | 454 kts | 316° |
| 2026-05-06 19:26 | 52.68371 | 19.83474 | 31777 ft | 447 kts | 314° |
| 2026-05-06 19:26 | 52.70642 | 19.80033 | 31594 ft | 443 kts | 305° |
| 2026-05-06 19:26 | 52.72618 | 19.76140 | 31258 ft | 441 kts | 302° |
| 2026-05-06 19:26 | 52.74531 | 19.72179 | 30778 ft | 442 kts | 302° |
| 2026-05-06 19:27 | 52.76436 | 19.68201 | 30337 ft | 442 kts | 302° |
| 2026-05-06 19:27 | 52.78330 | 19.64260 | 29890 ft | 444 kts | 302° |
| 2026-05-06 19:27 | 52.80291 | 19.60210 | 29356 ft | 447 kts | 302° |
| 2026-05-06 19:27 | 52.82243 | 19.56202 | 28832 ft | 448 kts | 302° |
| 2026-05-06 19:28 | 52.84199 | 19.52202 | 28365 ft | 448 kts | 302° |
| 2026-05-06 19:28 | 52.86139 | 19.48239 | 27867 ft | 449 kts | 303° |
| 2026-05-06 19:28 | 52.88100 | 19.44229 | 27378 ft | 449 kts | 303° |
| 2026-05-06 19:28 | 52.90062 | 19.40210 | 26882 ft | 449 kts | 303° |
| 2026-05-06 19:29 | 52.92021 | 19.36190 | 26388 ft | 448 kts | 303° |
| 2026-05-06 19:29 | 52.93981 | 19.32158 | 25891 ft | 449 kts | 303° |
| 2026-05-06 19:29 | 52.95935 | 19.28134 | 25401 ft | 445 kts | 303° |
| 2026-05-06 19:29 | 52.97864 | 19.24161 | 24911 ft | 437 kts | 303° |
| 2026-05-06 19:30 | 52.99756 | 19.20254 | 24428 ft | 430 kts | 303° |
| 2026-05-06 19:30 | 53.01614 | 19.16408 | 23962 ft | 423 kts | 303° |
| 2026-05-06 19:30 | 53.03442 | 19.12618 | 23525 ft | 417 kts | 303° |
| 2026-05-06 19:30 | 53.05221 | 19.08923 | 22992 ft | 412 kts | 303° |
| 2026-05-06 19:31 | 53.07014 | 19.05243 | 22496 ft | 408 kts | 306° |
| 2026-05-06 19:31 | 53.09105 | 19.02044 | 22015 ft | 411 kts | 318° |
| 2026-05-06 19:31 | 53.14217 | 18.97834 | 21165 ft | 412 kts | 338° |
| 2026-05-06 19:32 | 53.16958 | 18.96502 | 20738 ft | 407 kts | 338° |
| 2026-05-06 19:32 | 53.19661 | 18.95180 | 20312 ft | 403 kts | 338° |
| 2026-05-06 19:32 | 53.22332 | 18.93828 | 19891 ft | 398 kts | 338° |
| 2026-05-06 19:32 | 53.24934 | 18.92475 | 19488 ft | 394 kts | 337° |
| 2026-05-06 19:33 | 53.27546 | 18.91104 | 19069 ft | 391 kts | 337° |
| 2026-05-06 19:33 | 53.30132 | 18.89742 | 18654 ft | 388 kts | 337° |
| 2026-05-06 19:33 | 53.32694 | 18.88392 | 18244 ft | 385 kts | 337° |
| 2026-05-06 19:33 | 53.35252 | 18.87045 | 17783 ft | 383 kts | 337° |
| 2026-05-06 19:34 | 53.37777 | 18.85715 | 17337 ft | 379 kts | 337° |
| 2026-05-06 19:34 | 53.40291 | 18.84390 | 16944 ft | 376 kts | 338° |
| 2026-05-06 19:34 | 53.42737 | 18.83100 | 16532 ft | 372 kts | 338° |
| 2026-05-06 19:34 | 53.45202 | 18.81799 | 16123 ft | 369 kts | 338° |
| 2026-05-06 19:35 | 53.47638 | 18.80512 | 15728 ft | 366 kts | 338° |
| 2026-05-06 19:35 | 53.50057 | 18.79232 | 15329 ft | 363 kts | 338° |
| 2026-05-06 19:35 | 53.52488 | 18.78097 | 14941 ft | 364 kts | 345° |
| 2026-05-06 19:35 | 53.55012 | 18.77650 | 14562 ft | 364 kts | 351° |
| 2026-05-06 19:36 | 53.57537 | 18.77399 | 14168 ft | 363 kts | 352° |
| 2026-05-06 19:36 | 53.60055 | 18.77167 | 13778 ft | 361 kts | 352° |
| 2026-05-06 19:36 | 53.62553 | 18.76923 | 13358 ft | 359 kts | 352° |
| 2026-05-06 19:36 | 53.65039 | 18.76662 | 12941 ft | 356 kts | 351° |
| 2026-05-06 19:37 | 53.67502 | 18.76390 | 12549 ft | 354 kts | 351° |
| 2026-05-06 19:37 | 53.69949 | 18.76113 | 12187 ft | 350 kts | 351° |
| 2026-05-06 19:37 | 53.72339 | 18.75842 | 12058 ft | 339 kts | 351° |
| 2026-05-06 19:37 | 53.74670 | 18.75578 | 11904 ft | 330 kts | 351° |
| 2026-05-06 19:38 | 53.76935 | 18.75335 | 11761 ft | 323 kts | 352° |
| 2026-05-06 19:38 | 53.79169 | 18.75345 | 11590 ft | 318 kts | 356° |
| 2026-05-06 19:38 | 53.81350 | 18.75484 | 11448 ft | 312 kts | 356° |
| 2026-05-06 19:38 | 53.83527 | 18.75633 | 11197 ft | 314 kts | 356° |
| 2026-05-06 19:39 | 53.85711 | 18.75768 | 10954 ft | 315 kts | 356° |
| 2026-05-06 19:39 | 53.87912 | 18.75888 | 10718 ft | 316 kts | 356° |
| 2026-05-06 19:39 | 53.90080 | 18.75997 | 10484 ft | 315 kts | 356° |
| 2026-05-06 19:39 | 53.92269 | 18.76104 | 10243 ft | 314 kts | 355° |
| 2026-05-06 19:40 | 53.93741 | 18.76175 | 10079 ft | 313 kts | 355° |
| 2026-05-06 19:40 | 53.94879 | 18.76231 | 9956 ft | 312 kts | 355° |
| 2026-05-06 19:41 | 53.97054 | 18.76335 | 9711 ft | 311 kts | 355° |
| 2026-05-06 19:41 | 53.99166 | 18.76438 | 9446 ft | 308 kts | 355° |
| 2026-05-06 19:41 | 54.01310 | 18.76542 | 9177 ft | 304 kts | 355° |
| 2026-05-06 19:41 | 54.03417 | 18.76643 | 8916 ft | 302 kts | 355° |
| 2026-05-06 19:42 | 54.05504 | 18.76745 | 8691 ft | 299 kts | 356° |
| 2026-05-06 19:42 | 54.07573 | 18.76846 | 8434 ft | 296 kts | 356° |
| 2026-05-06 19:42 | 54.09577 | 18.76892 | 8170 ft | 290 kts | 349° |
| 2026-05-06 19:42 | 54.11433 | 18.75893 | 7894 ft | 272 kts | 320° |
| 2026-05-06 19:43 | 54.12771 | 18.73770 | 7669 ft | 258 kts | 302° |
| 2026-05-06 19:43 | 54.13651 | 18.71170 | 7426 ft | 249 kts | 289° |
| 2026-05-06 19:43 | 54.14324 | 18.68480 | 7189 ft | 245 kts | 287° |
| 2026-05-06 19:43 | 54.14974 | 18.65795 | 6936 ft | 243 kts | 287° |
| 2026-05-06 19:44 | 54.15889 | 18.63363 | 6655 ft | 252 kts | 315° |
| 2026-05-06 19:44 | 54.17491 | 18.62082 | 6442 ft | 262 kts | 346° |
| 2026-05-06 19:44 | 54.19326 | 18.62281 | 6191 ft | 269 kts | 14° |
| 2026-05-06 19:44 | 54.21053 | 18.63492 | 5945 ft | 269 kts | 30° |
| 2026-05-06 19:45 | 54.22290 | 18.65609 | 5677 ft | 269 kts | 62° |
| 2026-05-06 19:45 | 54.22573 | 18.66654 | 5594 ft | 267 kts | 73° |
| 2026-05-06 19:45 | 54.22792 | 18.69560 | 5370 ft | 260 kts | 98° |
| 2026-05-06 19:45 | 54.22346 | 18.72484 | 5125 ft | 252 kts | 117° |
| 2026-05-06 19:46 | 54.21655 | 18.75196 | 5017 ft | 247 kts | 117° |
| 2026-05-06 19:46 | 54.20975 | 18.77847 | 4990 ft | 245 kts | 117° |
| 2026-05-06 19:46 | 54.20288 | 18.80516 | 4985 ft | 243 kts | 117° |
| 2026-05-06 19:46 | 54.19612 | 18.83171 | 4981 ft | 242 kts | 117° |
| 2026-05-06 19:47 | 54.18944 | 18.85803 | 4985 ft | 244 kts | 117° |
| 2026-05-06 19:47 | 54.18261 | 18.88503 | 4978 ft | 246 kts | 118° |
| 2026-05-06 19:47 | 54.17582 | 18.91184 | 4987 ft | 248 kts | 118° |
| 2026-05-06 19:47 | 54.16903 | 18.93871 | 4994 ft | 249 kts | 118° |
| 2026-05-06 19:48 | 54.16214 | 18.96593 | 4979 ft | 251 kts | 118° |
| 2026-05-06 19:48 | 54.15524 | 18.99317 | 4978 ft | 251 kts | 118° |
| 2026-05-06 19:48 | 54.15136 | 19.02230 | 4953 ft | 254 kts | 88° |
| 2026-05-06 19:48 | 54.15700 | 19.05020 | 4968 ft | 250 kts | 53° |
| 2026-05-06 19:49 | 54.16969 | 19.06939 | 4979 ft | 243 kts | 27° |
| 2026-05-06 19:49 | 54.18493 | 19.08191 | 4986 ft | 244 kts | 20° |
| 2026-05-06 19:49 | 54.20127 | 19.08909 | 4955 ft | 241 kts | 352° |
| 2026-05-06 19:49 | 54.21674 | 19.08100 | 4980 ft | 229 kts | 320° |
| 2026-05-06 19:50 | 54.22786 | 19.06251 | 4979 ft | 221 kts | 297° |
| 2026-05-06 19:50 | 54.23473 | 19.03940 | 4985 ft | 218 kts | 288° |
| 2026-05-06 19:50 | 54.24062 | 19.01576 | 4993 ft | 219 kts | 287° |
| 2026-05-06 19:50 | 54.24657 | 18.99168 | 4983 ft | 220 kts | 288° |
| 2026-05-06 19:51 | 54.25252 | 18.96762 | 4942 ft | 221 kts | 288° |
| 2026-05-06 19:51 | 54.25858 | 18.94325 | 4712 ft | 223 kts | 288° |
| 2026-05-06 19:51 | 54.26467 | 18.91891 | 4472 ft | 222 kts | 290° |
| 2026-05-06 19:51 | 54.27102 | 18.89483 | 4224 ft | 220 kts | 291° |
| 2026-05-06 19:52 | 54.27693 | 18.87069 | 3954 ft | 220 kts | 290° |
| 2026-05-06 19:52 | 54.28285 | 18.84674 | 3703 ft | 219 kts | 290° |
| 2026-05-06 19:52 | 54.28881 | 18.82288 | 3489 ft | 216 kts | 291° |
| 2026-05-06 19:52 | 54.29463 | 18.79962 | 3227 ft | 210 kts | 292° |
| 2026-05-06 19:53 | 54.30066 | 18.77771 | 3038 ft | 200 kts | 295° |
| 2026-05-06 19:53 | 54.30627 | 18.75655 | 2997 ft | 191 kts | 293° |
| 2026-05-06 19:53 | 54.31145 | 18.73581 | 2998 ft | 188 kts | 292° |
| 2026-05-06 19:53 | 54.31653 | 18.71506 | 3003 ft | 190 kts | 292° |
| 2026-05-06 19:54 | 54.32166 | 18.69398 | 3011 ft | 194 kts | 292° |
| 2026-05-06 19:54 | 54.32700 | 18.67208 | 2852 ft | 202 kts | 294° |
| 2026-05-06 19:54 | 54.33250 | 18.64956 | 2558 ft | 204 kts | 299° |
| 2026-05-06 19:54 | 54.33822 | 18.62762 | 2271 ft | 199 kts | 295° |
| 2026-05-06 19:55 | 54.34320 | 18.60607 | 2012 ft | 190 kts | 297° |
| 2026-05-06 19:55 | 54.34821 | 18.58543 | 1764 ft | 184 kts | 300° |
| 2026-05-06 19:55 | 54.35315 | 18.56540 | 1527 ft | 182 kts | 300° |
| 2026-05-06 19:55 | 54.35806 | 18.54543 | 1248 ft | 181 kts | 300° |
| 2026-05-06 19:56 | 54.36275 | 18.52624 | 1000 ft | 173 kts | 301° |
| 2026-05-06 19:56 | 54.36663 | 18.50758 | 746 ft | 167 kts | 284° |
| 2026-05-06 19:56 | 54.36583 | 18.50109 | 419 ft | 0 kts | 146° |